Aérodrome :
LOGIN :

S'inscrire | Disclaimer

   EN    FR    IT 

 










Légende :    VFR   VFR Marginal   IFR   IFR Intensif   IFR Très Intensif
Visi : 
Plafond : 
>= 8 km
>= 3000ft
5 à 8 km
1000 à 3000 ft
1500m à 5 km
500 à 1000 ft
800 à 1500m
200 à 500 ft
< 800m
< 200 ft
Symboles :   Orages  Brouillard  Fortes neiges  Fortes précipitations  Vent > 20 kt
SIGMETs :   Divers  Orages  Givrage  Turbulence  Onde Orograph.  Cendres Volcan.






- Altitude de l'aérodrome : 370 ft


EBBE - Beauvechain AB

DERNIER METAR :
  • 100425Z AUTO 23007KT 9999 NCD 02/01 Q1025 BLU

METARs EXPIRÉS :
  • 100355Z AUTO 23006KT 9999 NCD 03/02 Q1025 BLU
  • 100325Z AUTO 24005KT 9999 FEW045/// 03/02 Q1025 BLU
  • 100255Z AUTO 25005KT 9999 FEW043/// 03/02 Q1025 BLU
  • 100225Z AUTO 25005KT 9999 FEW038/// BKN060/// 03/02 Q1025 BLU
  • 100155Z AUTO 25006KT 9999 BKN060/// 03/02 Q1025 BLU

TAF TAF EBBE
Valide du 09 à 19h jusqu'au 10 à 07h UTC


091541Z 0919/1007 32015KT 9999 SCT017 BKN025
TEMPO 0919/1007 SCT012 BKN020
BECMG 1004/1006 24007KT 7000



MET'MAP, la Météo Aéronautique d'un coup d'oeil ! - Copyright ORBIFLY Décembre 2007 - Disclaimer

ORBIFLY MET'MAP TEAM :

Programmation & Développement : Alexandra Zaïnal
Sur une idée originale de : Baudouin d'Aumeries
Assistance à la programmation : Marc-Olivier Méhu
Soutien technique & logistique : Manuel Goepfert

Contact : metmap@orbifly.com




SOURCES & CREDITS :

   NOAA